createdAt,value
2016-10-14T00:00:15.038Z,21.57
2016-10-14T00:01:14.951Z,21.66
2016-10-14T00:02:14.998Z,21.64
2016-10-14T00:03:15.059Z,21.75
2016-10-14T00:04:15.129Z,21.66
2016-10-14T00:05:15.264Z,21.67
2016-10-14T00:06:15.225Z,21.61
2016-10-14T00:07:15.285Z,21.6
2016-10-14T00:08:15.348Z,21.58
2016-10-14T00:09:15.428Z,21.64
2016-10-14T00:10:15.547Z,21.62
2016-10-14T00:11:15.990Z,21.66
2016-10-14T00:12:15.529Z,21.62
2016-10-14T00:13:15.608Z,21.58
2016-10-14T00:14:15.653Z,21.6
2016-10-14T00:15:15.708Z,21.54
2016-10-14T00:16:15.793Z,21.43
2016-10-14T00:17:15.828Z,21.45
2016-10-14T00:18:15.887Z,21.51
2016-10-14T00:19:15.914Z,21.42
2016-10-14T00:20:15.964Z,21.5
2016-10-14T00:21:16.023Z,21.45
2016-10-14T00:22:16.093Z,21.42
2016-10-14T00:23:16.103Z,21.36
2016-10-14T00:24:16.178Z,21.33
2016-10-14T00:25:16.204Z,21.22
2016-10-14T00:26:16.375Z,21.21
2016-10-14T00:27:16.813Z,21.17
2016-10-14T00:28:16.392Z,21.17
2016-10-14T00:29:16.444Z,21.11
2016-10-14T00:30:16.500Z,21.18
2016-10-14T00:31:16.692Z,21.18
2016-10-14T00:32:16.608Z,21.24
2016-10-14T00:33:16.643Z,21.22
2016-10-14T00:34:16.674Z,21.27
2016-10-14T00:35:16.768Z,21.32
2016-10-14T00:36:16.909Z,21.29
2016-10-14T00:37:16.832Z,21.32
2016-10-14T00:38:16.921Z,21.27
2016-10-14T00:39:16.974Z,21.21
2016-10-14T00:40:17.568Z,21.24
2016-10-14T00:41:17.185Z,21.2
2016-10-14T00:42:17.081Z,21.2
2016-10-14T00:43:17.164Z,21.27
2016-10-14T00:44:17.234Z,21.29
2016-10-14T00:45:17.284Z,21.35
2016-10-14T00:46:17.415Z,21.33
2016-10-14T00:47:17.399Z,21.27
2016-10-14T00:48:17.468Z,21.32
2016-10-14T00:49:17.506Z,21.33
2016-10-14T00:50:17.581Z,21.36
2016-10-14T00:51:17.620Z,21.36
2016-10-14T00:52:17.674Z,21.35
2016-10-14T00:53:17.676Z,21.32
2016-10-14T00:54:17.773Z,21.21
2016-10-14T00:55:17.809Z,21.37
2016-10-14T00:56:17.902Z,21.27
2016-10-14T00:57:17.944Z,21.33
2016-10-14T00:58:17.922Z,21.18
2016-10-14T00:59:18.020Z,21.37
2016-10-14T01:00:18.055Z,21.3
2016-10-14T01:01:18.130Z,21.29
2016-10-14T01:02:18.171Z,21.33
2016-10-14T01:03:18.198Z,21.43
2016-10-14T01:04:18.245Z,21.39
2016-10-14T01:05:18.325Z,21.3
2016-10-14T01:06:18.392Z,21.42
2016-10-14T01:07:18.558Z,21.45
2016-10-14T01:08:18.991Z,21.37
2016-10-14T01:09:18.535Z,21.35
2016-10-14T01:10:18.586Z,21.33
2016-10-14T01:11:18.639Z,21.32
2016-10-14T01:12:18.808Z,21.24
2016-10-14T01:13:18.734Z,21.22
2016-10-14T01:14:18.794Z,21.06
2016-10-14T01:15:18.840Z,21.14
2016-10-14T01:16:18.902Z,21.12
2016-10-14T01:17:19.097Z,21.07
2016-10-14T01:18:19.029Z,21
2016-10-14T01:19:19.110Z,21.15
2016-10-14T01:20:19.145Z,21.17
2016-10-14T01:21:19.716Z,21.05
2016-10-14T01:22:19.370Z,21.14
2016-10-14T01:23:19.249Z,21.18
2016-10-14T01:24:19.345Z,21.11
2016-10-14T01:25:19.411Z,21.05
2016-10-14T01:26:19.453Z,21.03
2016-10-14T01:27:19.497Z,21.02
2016-10-14T01:28:19.553Z,21.12
2016-10-14T01:29:19.568Z,21.09
2016-10-14T01:30:19.656Z,21.05
2016-10-14T01:31:20.246Z,21.06
2016-10-14T01:32:19.749Z,20.97
2016-10-14T01:33:19.832Z,20.96
2016-10-14T01:34:19.858Z,20.99
2016-10-14T01:35:19.887Z,20.97
2016-10-14T01:36:19.957Z,20.95
2016-10-14T01:37:20.050Z,20.96
2016-10-14T01:38:20.176Z,20.95
2016-10-14T01:39:20.158Z,21.05
2016-10-14T01:40:20.169Z,20.93
2016-10-14T01:41:20.200Z,20.93
2016-10-14T01:42:20.316Z,20.97
2016-10-14T01:43:20.436Z,21.03
2016-10-14T01:44:20.361Z,21.07
2016-10-14T01:45:20.472Z,20.96
2016-10-14T01:46:20.463Z,20.95
2016-10-14T01:47:20.559Z,21.06
2016-10-14T01:48:20.664Z,21.05
2016-10-14T01:49:20.665Z,21.11
2016-10-14T01:50:20.723Z,21.05
2016-10-14T01:51:20.753Z,21.07
2016-10-14T01:52:20.841Z,21.09
2016-10-14T01:53:20.941Z,21.09
2016-10-14T01:54:20.923Z,21.15
2016-10-14T01:55:20.941Z,20.97
2016-10-14T01:56:21.023Z,21.06
2016-10-14T01:57:21.070Z,20.96
2016-10-14T01:58:21.092Z,20.97
2016-10-14T01:59:21.179Z,20.92
2016-10-14T02:00:21.278Z,21.06
2016-10-14T02:01:21.297Z,21.06
2016-10-14T02:02:21.348Z,21.07
2016-10-14T02:03:21.902Z,20.97
2016-10-14T02:04:21.461Z,21.11
2016-10-14T02:05:21.477Z,21.09
2016-10-14T02:06:21.553Z,21.09
2016-10-14T02:07:21.614Z,20.93
2016-10-14T02:08:22.190Z,20.99
2016-10-14T02:09:21.772Z,21.03
2016-10-14T02:10:21.706Z,20.93
2016-10-14T02:11:21.785Z,20.93
2016-10-14T02:12:21.868Z,21.06
2016-10-14T02:13:21.912Z,20.96
2016-10-14T02:14:22.050Z,20.95
2016-10-14T02:15:21.990Z,20.97
2016-10-14T02:16:22.085Z,20.95
2016-10-14T02:17:22.111Z,21.02
2016-10-14T02:18:22.173Z,20.8
2016-10-14T02:19:22.334Z,20.93
2016-10-14T02:20:22.267Z,20.95
2016-10-14T02:21:22.334Z,20.88
2016-10-14T02:22:22.875Z,20.96
2016-10-14T02:23:22.453Z,20.92
2016-10-14T02:24:22.546Z,20.93
2016-10-14T02:25:22.538Z,20.88
2016-10-14T02:26:22.612Z,21
2016-10-14T02:27:22.678Z,20.9
2016-10-14T02:28:22.656Z,20.99
2016-10-14T02:29:22.853Z,20.97
2016-10-14T02:30:22.837Z,20.95
2016-10-14T02:31:22.823Z,21.02
2016-10-14T02:32:22.930Z,21.12
2016-10-14T02:33:23.495Z,21.05
2016-10-14T02:34:23.002Z,21.05
2016-10-14T02:35:23.080Z,21.03
2016-10-14T02:36:23.126Z,20.95
2016-10-14T02:37:23.178Z,20.96
2016-10-14T02:38:23.263Z,20.93
2016-10-14T02:39:23.300Z,21
2016-10-14T02:40:23.352Z,20.78
2016-10-14T02:41:23.370Z,20.75
2016-10-14T02:42:23.404Z,20.93
2016-10-14T02:43:23.488Z,21.03
2016-10-14T02:44:23.542Z,21.02
2016-10-14T02:45:23.609Z,21.07
2016-10-14T02:46:23.661Z,21.06
2016-10-14T02:47:23.680Z,21.07
2016-10-14T02:48:23.761Z,21.14
2016-10-14T02:49:23.775Z,21.15
2016-10-14T02:50:23.971Z,21.02
2016-10-14T02:51:23.888Z,21.2
2016-10-14T02:52:23.922Z,21.18
2016-10-14T02:53:24.008Z,21.18
2016-10-14T02:54:24.035Z,21.24
2016-10-14T02:55:24.242Z,21.21
2016-10-14T02:56:24.137Z,21.24
2016-10-14T02:57:24.234Z,21.14
2016-10-14T02:58:24.252Z,21.27
2016-10-14T02:59:24.388Z,21.27
2016-10-14T03:00:24.429Z,21.29
2016-10-14T03:01:24.427Z,21.29
2016-10-14T03:02:24.494Z,21.24
2016-10-14T03:03:24.540Z,21.11
2016-10-14T03:04:25.120Z,21.12
2016-10-14T03:05:24.693Z,21.07
2016-10-14T03:06:24.686Z,21.07
2016-10-14T03:07:24.768Z,21.06
2016-10-14T03:08:25.344Z,21.06
2016-10-14T03:09:24.838Z,21.07
2016-10-14T03:10:25.058Z,21.14
2016-10-14T03:11:24.944Z,21.21
2016-10-14T03:12:25.013Z,21.15
2016-10-14T03:13:25.052Z,21.24
2016-10-14T03:14:25.114Z,21.2
2016-10-14T03:15:25.170Z,21.24
2016-10-14T03:16:25.218Z,21.29
2016-10-14T03:17:25.266Z,21.24
2016-10-14T03:18:25.344Z,21.2
2016-10-14T03:19:25.373Z,21.21
2016-10-14T03:20:25.456Z,21.12
2016-10-14T03:21:25.461Z,21.17
2016-10-14T03:22:25.528Z,21.22
2016-10-14T03:23:25.599Z,21.07
2016-10-14T03:24:25.637Z,21.02
2016-10-14T03:25:25.694Z,21.07
2016-10-14T03:26:25.740Z,21.05
2016-10-14T03:27:25.760Z,20.99
2016-10-14T03:28:25.891Z,21.05
2016-10-14T03:29:25.862Z,20.93
2016-10-14T03:30:25.951Z,21.07
2016-10-14T03:31:26.673Z,21.03
2016-10-14T03:32:26.048Z,21.06
2016-10-14T03:33:26.122Z,21.06
2016-10-14T03:34:26.142Z,21.03
2016-10-14T03:35:26.256Z,21.03
2016-10-14T03:36:26.370Z,21.07
2016-10-14T03:37:26.354Z,21.09
2016-10-14T03:38:26.916Z,21.14
2016-10-14T03:39:26.467Z,21.17
2016-10-14T03:40:26.500Z,21.06
2016-10-14T03:41:26.673Z,21.18
2016-10-14T03:42:26.591Z,21.15
2016-10-14T03:43:26.653Z,21.09
2016-10-14T03:44:26.731Z,21.07
2016-10-14T03:45:26.745Z,21.18
2016-10-14T03:46:26.781Z,21.06
2016-10-14T03:47:26.874Z,21.07
2016-10-14T03:48:26.947Z,21.12
2016-10-14T03:49:26.952Z,21.09
2016-10-14T03:50:26.980Z,21.2
2016-10-14T03:51:27.084Z,21.11
2016-10-14T03:52:27.131Z,21.18
2016-10-14T03:53:27.171Z,21.12
2016-10-14T03:54:27.223Z,21.07
2016-10-14T03:55:27.790Z,21.02
2016-10-14T03:56:27.329Z,21.11
2016-10-14T03:57:27.500Z,21.18
2016-10-14T03:58:27.415Z,21
2016-10-14T03:59:27.509Z,21.03
2016-10-14T04:00:27.542Z,21.05
2016-10-14T04:01:27.604Z,21.12
2016-10-14T04:02:27.764Z,21.05
2016-10-14T04:03:27.715Z,21.06
2016-10-14T04:04:27.756Z,21
2016-10-14T04:05:27.785Z,21.06
2016-10-14T04:06:27.861Z,21.03
2016-10-14T04:07:28.023Z,20.97
2016-10-14T04:08:28.489Z,21.02
2016-10-14T04:09:28.016Z,21.05
2016-10-14T04:10:28.083Z,21.12
2016-10-14T04:11:28.141Z,21.11
2016-10-14T04:12:28.180Z,21.07
2016-10-14T04:13:28.258Z,21.07
2016-10-14T04:14:28.294Z,21.05
2016-10-14T04:15:28.836Z,21.05
2016-10-14T04:16:28.392Z,21.07
2016-10-14T04:17:28.420Z,21.03
2016-10-14T04:18:28.498Z,21.11
2016-10-14T04:19:28.515Z,21.05
2016-10-14T04:20:28.585Z,21.12
2016-10-14T04:21:28.657Z,21.15
2016-10-14T04:22:28.721Z,21.15
2016-10-14T04:23:28.891Z,21.07
2016-10-14T04:24:28.787Z,21.05
2016-10-14T04:25:28.837Z,21.05
2016-10-14T04:26:28.938Z,21.07
2016-10-14T04:27:28.962Z,21.09
2016-10-14T04:28:29.160Z,20.96
2016-10-14T04:29:29.041Z,20.97
2016-10-14T04:30:29.103Z,20.95
2016-10-14T04:31:29.206Z,20.96
2016-10-14T04:32:29.243Z,20.77
2016-10-14T04:33:29.369Z,20.7
2016-10-14T04:34:29.326Z,20.78
2016-10-14T04:35:29.393Z,20.74
2016-10-14T04:36:29.461Z,20.78
2016-10-14T04:37:29.475Z,20.87
2016-10-14T04:38:29.589Z,20.78
2016-10-14T04:39:29.602Z,20.85
2016-10-14T04:40:29.640Z,20.8
2016-10-14T04:41:29.689Z,20.82
2016-10-14T04:42:29.763Z,20.81
2016-10-14T04:43:29.780Z,20.88
2016-10-14T04:44:29.887Z,20.92
2016-10-14T04:45:29.908Z,21.02
2016-10-14T04:46:29.989Z,20.95
2016-10-14T04:47:30.025Z,20.96
2016-10-14T04:48:30.062Z,20.96
2016-10-14T04:49:30.245Z,20.92
2016-10-14T04:50:30.193Z,20.95
2016-10-14T04:51:30.259Z,21
2016-10-14T04:52:30.304Z,20.93
2016-10-14T04:53:30.329Z,20.96
2016-10-14T04:54:30.505Z,21
2016-10-14T04:55:30.474Z,20.92
2016-10-14T04:56:30.497Z,20.96
2016-10-14T04:57:31.050Z,21.05
2016-10-14T04:58:30.580Z,20.97
2016-10-14T04:59:30.766Z,20.92
2016-10-14T05:00:30.699Z,20.92
2016-10-14T05:01:30.770Z,20.97
2016-10-14T05:02:30.824Z,20.9
2016-10-14T05:03:30.866Z,20.92
2016-10-14T05:04:30.989Z,20.88
2016-10-14T05:05:30.971Z,20.92
2016-10-14T05:06:31.014Z,20.88
2016-10-14T05:07:31.084Z,20.88
2016-10-14T05:08:31.159Z,20.84
2016-10-14T05:09:31.177Z,20.84
2016-10-14T05:10:31.214Z,20.82
2016-10-14T05:11:31.286Z,20.82
2016-10-14T05:12:31.346Z,20.8
2016-10-14T05:13:31.402Z,20.81
2016-10-14T05:14:31.466Z,20.82
2016-10-14T05:15:31.489Z,20.78
2016-10-14T05:16:31.548Z,20.93
2016-10-14T05:17:31.592Z,20.8
2016-10-14T05:18:31.708Z,20.95
2016-10-14T05:19:31.755Z,20.93
2016-10-14T05:20:31.867Z,20.93
2016-10-14T05:21:31.815Z,20.87
2016-10-14T05:22:31.851Z,20.77
2016-10-14T05:23:32.454Z,20.81
2016-10-14T05:24:31.962Z,20.9
2016-10-14T05:25:32.154Z,20.82
2016-10-14T05:26:32.064Z,20.99
2016-10-14T05:27:32.142Z,20.88
2016-10-14T05:28:32.164Z,20.88
2016-10-14T05:29:32.257Z,20.88
2016-10-14T05:30:32.415Z,20.9
2016-10-14T05:31:32.345Z,20.88
2016-10-14T05:32:32.428Z,20.88
2016-10-14T05:33:32.462Z,20.9
2016-10-14T05:34:32.501Z,20.85
2016-10-14T05:35:32.684Z,20.75
2016-10-14T05:36:33.118Z,20.8
2016-10-14T05:37:32.644Z,20.9
2016-10-14T05:38:32.750Z,20.92
2016-10-14T05:39:32.783Z,20.99
2016-10-14T05:40:33.010Z,20.93
2016-10-14T05:41:32.876Z,20.95
2016-10-14T05:42:32.899Z,20.99
2016-10-14T05:43:32.990Z,21
2016-10-14T05:44:33.565Z,21
2016-10-14T05:45:33.783Z,20.96
2016-10-14T05:46:33.151Z,20.92
2016-10-14T05:47:33.191Z,20.78
2016-10-14T05:48:33.242Z,20.95
2016-10-14T05:49:33.323Z,20.8
2016-10-14T05:50:33.381Z,20.7
2016-10-14T05:51:33.382Z,20.78
2016-10-14T05:52:33.471Z,20.77
2016-10-14T05:53:33.515Z,20.85
2016-10-14T05:54:33.551Z,20.81
2016-10-14T05:55:33.581Z,20.84
2016-10-14T05:56:34.308Z,20.85
2016-10-14T05:57:33.718Z,20.82
2016-10-14T05:58:33.778Z,20.78
2016-10-14T05:59:33.823Z,20.84
2016-10-14T06:00:34.370Z,20.9
2016-10-14T06:01:34.032Z,20.81
2016-10-14T06:02:33.975Z,20.8
2016-10-14T06:03:34.071Z,20.74
2016-10-14T06:04:34.103Z,20.67
2016-10-14T06:05:34.162Z,20.63
2016-10-14T06:06:34.319Z,20.75
2016-10-14T06:07:34.777Z,20.7
2016-10-14T06:08:34.269Z,20.78
2016-10-14T06:09:34.349Z,20.84
2016-10-14T06:10:34.410Z,20.81
2016-10-14T06:11:34.568Z,20.82
2016-10-14T06:12:34.530Z,20.81
2016-10-14T06:13:34.585Z,20.78
2016-10-14T06:14:34.607Z,20.81
2016-10-14T06:15:34.651Z,20.72
2016-10-14T06:16:34.812Z,20.8
2016-10-14T06:17:34.753Z,20.81
2016-10-14T06:18:35.317Z,20.78
2016-10-14T06:19:34.889Z,20.77
2016-10-14T06:20:34.930Z,20.77
2016-10-14T06:21:34.989Z,20.66
2016-10-14T06:22:35.029Z,20.74
2016-10-14T06:23:35.089Z,20.72
2016-10-14T06:24:35.123Z,20.69
2016-10-14T06:25:35.248Z,20.63
2016-10-14T06:26:35.232Z,20.69
2016-10-14T06:27:35.296Z,20.67
2016-10-14T06:28:35.339Z,20.63
2016-10-14T06:29:35.404Z,20.7
2016-10-14T06:30:35.477Z,20.72
2016-10-14T06:31:36.029Z,20.7
2016-10-14T06:32:35.642Z,20.69
2016-10-14T06:33:35.654Z,20.69
2016-10-14T06:34:35.655Z,20.72
2016-10-14T06:35:35.708Z,20.72
2016-10-14T06:36:35.764Z,20.66
2016-10-14T06:37:35.959Z,20.75
2016-10-14T06:38:35.840Z,20.7
2016-10-14T06:39:35.964Z,20.69
2016-10-14T06:40:36.014Z,20.8
2016-10-14T06:41:36.006Z,20.66
2016-10-14T06:42:36.163Z,20.75
2016-10-14T06:43:36.664Z,20.67
2016-10-14T06:44:36.219Z,20.69
2016-10-14T06:45:36.215Z,20.72
2016-10-14T06:46:36.344Z,20.69
2016-10-14T06:47:36.456Z,20.7
2016-10-14T06:48:36.405Z,20.72
2016-10-14T06:49:36.488Z,20.7
2016-10-14T06:50:36.529Z,20.75
2016-10-14T06:51:36.566Z,20.66
2016-10-14T06:52:36.637Z,20.65
2016-10-14T06:53:36.636Z,20.74
2016-10-14T06:54:36.746Z,20.74
2016-10-14T06:55:36.753Z,20.81
2016-10-14T06:56:36.859Z,20.72
2016-10-14T06:57:36.868Z,20.81
2016-10-14T06:58:36.933Z,20.78
2016-10-14T06:59:37.496Z,20.84
2016-10-14T07:00:37.040Z,20.84
2016-10-14T07:01:37.108Z,20.84
2016-10-14T07:02:37.691Z,20.77
2016-10-14T07:03:37.203Z,20.87
2016-10-14T07:04:37.249Z,20.82
2016-10-14T07:05:37.310Z,20.82
2016-10-14T07:06:37.350Z,20.75
2016-10-14T07:07:37.402Z,20.82
2016-10-14T07:08:37.633Z,20.69
2016-10-14T07:09:37.477Z,20.72
2016-10-14T07:10:37.569Z,20.74
2016-10-14T07:11:37.645Z,20.65
2016-10-14T07:12:37.686Z,20.62
2016-10-14T07:13:37.880Z,20.66
2016-10-14T07:14:37.782Z,20.67
2016-10-14T07:15:37.817Z,20.78
2016-10-14T07:16:37.899Z,20.65
2016-10-14T07:17:37.942Z,20.67
2016-10-14T07:18:38.101Z,20.78
2016-10-14T07:19:38.032Z,20.7
2016-10-14T07:20:38.099Z,20.66
2016-10-14T07:21:38.163Z,20.72
2016-10-14T07:22:38.193Z,20.7
2016-10-14T07:23:38.279Z,20.7
2016-10-14T07:24:38.319Z,20.78
2016-10-14T07:25:38.353Z,20.67
2016-10-14T07:26:38.974Z,20.7
2016-10-14T07:27:38.445Z,20.7
2016-10-14T07:28:38.499Z,20.74
2016-10-14T07:29:38.554Z,20.65
2016-10-14T07:30:38.665Z,20.77
2016-10-14T07:31:38.646Z,20.67
2016-10-14T07:32:38.718Z,20.67
2016-10-14T07:33:38.766Z,20.77
2016-10-14T07:34:38.940Z,20.63
2016-10-14T07:35:39.438Z,20.74
2016-10-14T07:36:38.924Z,20.7
2016-10-14T07:37:39.055Z,20.69
2016-10-14T07:38:39.040Z,20.66
2016-10-14T07:39:39.220Z,20.69
2016-10-14T07:40:39.133Z,20.8
2016-10-14T07:41:39.210Z,20.63
2016-10-14T07:42:39.764Z,20.7
2016-10-14T07:43:39.291Z,20.8
2016-10-14T07:44:39.494Z,20.74
2016-10-14T07:45:39.427Z,20.74
2016-10-14T07:46:39.425Z,20.65
2016-10-14T07:47:39.507Z,20.69
2016-10-14T07:48:39.573Z,20.7
2016-10-14T07:49:39.727Z,20.72
2016-10-14T07:50:39.678Z,20.8
2016-10-14T07:51:39.693Z,20.72
2016-10-14T07:52:39.792Z,20.69
2016-10-14T07:53:39.857Z,20.69
2016-10-14T07:54:40.015Z,20.7
2016-10-14T07:55:39.964Z,20.67
2016-10-14T07:56:39.998Z,20.67
2016-10-14T07:57:40.084Z,20.78
2016-10-14T07:58:40.137Z,20.67
2016-10-14T07:59:40.150Z,20.69
2016-10-14T08:00:40.218Z,20.72
2016-10-14T08:01:40.258Z,20.7
2016-10-14T08:02:40.832Z,20.74
2016-10-14T08:03:40.393Z,20.8
2016-10-14T08:04:40.420Z,20.66
2016-10-14T08:05:40.493Z,20.72
2016-10-14T08:06:40.518Z,20.69
2016-10-14T08:07:40.567Z,20.7
2016-10-14T08:08:40.590Z,20.72
2016-10-14T08:09:40.660Z,20.66
2016-10-14T08:10:40.827Z,20.63
2016-10-14T08:11:40.824Z,20.66
2016-10-14T08:12:40.817Z,20.75
2016-10-14T08:13:40.864Z,20.67
2016-10-14T08:14:40.962Z,20.69
2016-10-14T08:15:41.114Z,20.69
2016-10-14T08:16:41.039Z,20.77
2016-10-14T08:17:41.089Z,20.75
2016-10-14T08:18:41.185Z,20.7
2016-10-14T08:19:41.244Z,20.69
2016-10-14T08:20:41.380Z,20.67
2016-10-14T08:21:41.332Z,20.7
2016-10-14T08:22:41.357Z,20.69
2016-10-14T08:23:41.421Z,20.74
2016-10-14T08:24:41.503Z,20.69
2016-10-14T08:25:41.628Z,20.7
2016-10-14T08:26:41.554Z,20.66
2016-10-14T08:27:41.635Z,20.74
2016-10-14T08:28:41.641Z,20.75
2016-10-14T08:29:41.753Z,20.81
2016-10-14T08:30:41.894Z,20.81
2016-10-14T08:31:41.834Z,20.8
2016-10-14T08:32:41.905Z,20.84
2016-10-14T08:33:41.965Z,20.85
2016-10-14T08:34:41.975Z,20.8
2016-10-14T08:35:42.042Z,20.8
2016-10-14T08:36:42.097Z,20.74
2016-10-14T08:37:42.153Z,20.81
2016-10-14T08:38:42.218Z,20.8
2016-10-14T08:39:42.237Z,20.75
2016-10-14T08:40:42.340Z,20.82
2016-10-14T08:41:42.386Z,20.82
2016-10-14T08:42:42.461Z,20.81
2016-10-14T08:43:42.458Z,20.81
2016-10-14T08:44:42.532Z,20.8
2016-10-14T08:45:42.541Z,20.66
2016-10-14T08:46:42.639Z,20.77
2016-10-14T08:47:42.679Z,20.75
2016-10-14T08:48:42.761Z,20.69
2016-10-14T08:49:42.814Z,20.72
2016-10-14T08:50:42.848Z,20.69
2016-10-14T08:51:42.973Z,20.72
2016-10-14T08:52:42.936Z,20.77
2016-10-14T08:53:43.004Z,20.67
2016-10-14T08:54:43.059Z,20.69
2016-10-14T08:55:43.652Z,20.74
2016-10-14T08:56:43.276Z,20.72
2016-10-14T08:57:43.207Z,20.7
2016-10-14T08:58:43.273Z,20.77
2016-10-14T08:59:43.345Z,20.67
2016-10-14T09:00:43.382Z,20.77
2016-10-14T09:01:43.499Z,20.74
2016-10-14T09:02:43.490Z,20.74
2016-10-14T09:03:43.532Z,20.75
2016-10-14T09:04:43.577Z,20.7
2016-10-14T09:05:43.641Z,20.7
2016-10-14T09:06:43.785Z,20.67
2016-10-14T09:07:43.751Z,20.6
2016-10-14T09:08:43.778Z,20.66
2016-10-14T09:09:43.822Z,20.75
2016-10-14T09:10:43.917Z,20.72
2016-10-14T09:11:43.949Z,20.65
2016-10-14T09:12:44.007Z,20.67
2016-10-14T09:13:44.072Z,20.66
2016-10-14T09:14:44.117Z,20.75
2016-10-14T09:15:44.183Z,20.69
2016-10-14T09:16:44.739Z,20.66
2016-10-14T09:17:44.280Z,20.69
2016-10-14T09:18:44.353Z,20.72
2016-10-14T09:19:44.375Z,20.66
2016-10-14T09:20:44.451Z,20.67
2016-10-14T09:21:44.478Z,20.74
2016-10-14T09:22:44.550Z,20.75
2016-10-14T09:23:44.594Z,20.81
2016-10-14T09:24:44.643Z,20.82
2016-10-14T09:25:45.247Z,20.85
2016-10-14T09:26:44.758Z,20.84
2016-10-14T09:27:44.843Z,20.82
2016-10-14T09:28:44.823Z,20.87
2016-10-14T09:29:45.428Z,20.81
2016-10-14T09:30:44.948Z,20.82
2016-10-14T09:31:45.005Z,20.81
2016-10-14T09:32:45.160Z,20.9
2016-10-14T09:33:45.134Z,20.93
2016-10-14T09:34:45.163Z,20.99
2016-10-14T09:35:45.192Z,20.93
2016-10-14T09:36:45.243Z,20.99
2016-10-14T09:37:45.935Z,20.95
2016-10-14T09:38:45.402Z,20.95
2016-10-14T09:39:45.419Z,20.96
2016-10-14T09:40:45.493Z,20.92
2016-10-14T09:41:45.543Z,20.92
2016-10-14T09:42:45.671Z,20.96
2016-10-14T09:43:45.630Z,21.05
2016-10-14T09:44:45.691Z,20.96
2016-10-14T09:45:45.780Z,20.96
2016-10-14T09:46:45.827Z,21.09
2016-10-14T09:47:45.856Z,21.07
2016-10-14T09:48:46.410Z,20.95
2016-10-14T09:49:45.952Z,21.09
2016-10-14T09:50:46.033Z,20.97
2016-10-14T09:51:46.071Z,21.05
2016-10-14T09:52:46.087Z,21.06
2016-10-14T09:53:46.196Z,20.95
2016-10-14T09:54:46.239Z,21.15
2016-10-14T09:55:46.267Z,21.05
2016-10-14T09:56:46.332Z,21.09
2016-10-14T09:57:46.370Z,21.15
2016-10-14T09:58:46.539Z,21.22
2016-10-14T09:59:46.500Z,21.17
2016-10-14T10:00:46.519Z,21.17
2016-10-14T10:01:46.594Z,21.2
2016-10-14T10:02:46.634Z,21.21
2016-10-14T10:03:47.343Z,21.27
2016-10-14T10:04:46.717Z,21.22
2016-10-14T10:05:46.824Z,21.32
2016-10-14T10:06:46.901Z,21.3
2016-10-14T10:07:46.907Z,21.29
2016-10-14T10:08:47.059Z,21.27
2016-10-14T10:09:47.046Z,21.32
2016-10-14T10:10:47.080Z,21.33
2016-10-14T10:11:47.150Z,21.36
2016-10-14T10:12:47.157Z,21.27
2016-10-14T10:13:47.233Z,21.3
2016-10-14T10:14:47.300Z,21.3
2016-10-14T10:15:47.373Z,21.45
2016-10-14T10:16:47.399Z,21.35
2016-10-14T10:17:47.465Z,21.45
2016-10-14T10:18:47.515Z,21.4
2016-10-14T10:19:48.098Z,21.42
2016-10-14T10:20:47.610Z,21.37
2016-10-14T10:21:47.647Z,21.39
2016-10-14T10:22:47.696Z,21.4
2016-10-14T10:23:47.755Z,21.46
2016-10-14T10:24:47.797Z,21.43
2016-10-14T10:25:47.862Z,21.43
2016-10-14T10:26:47.913Z,21.43
2016-10-14T10:27:47.951Z,21.48
2016-10-14T10:28:48.524Z,21.48
2016-10-14T10:29:48.663Z,21.43
2016-10-14T10:30:48.616Z,21.52
2016-10-14T10:31:48.212Z,21.46
2016-10-14T10:32:48.253Z,21.48
2016-10-14T10:33:48.817Z,21.52
2016-10-14T10:34:48.455Z,21.55
2016-10-14T10:35:48.951Z,21.51
2016-10-14T10:36:48.456Z,21.51
2016-10-14T10:37:48.498Z,21.6
2016-10-14T10:38:48.605Z,21.6
2016-10-14T10:39:48.723Z,21.6
2016-10-14T10:40:48.682Z,21.54
2016-10-14T10:41:48.734Z,21.55
2016-10-14T10:42:48.786Z,21.61
2016-10-14T10:43:48.828Z,21.64
2016-10-14T10:44:48.976Z,21.69
2016-10-14T10:45:48.947Z,21.75
2016-10-14T10:46:49.015Z,21.8
2016-10-14T10:47:49.056Z,21.89
2016-10-14T10:48:49.139Z,21.92
2016-10-14T10:49:49.164Z,21.99
2016-10-14T10:50:49.166Z,22.06
2016-10-14T10:51:49.272Z,21.99
2016-10-14T10:52:49.279Z,22.02
2016-10-14T10:53:49.379Z,22.06
2016-10-14T10:54:49.392Z,22.1
2016-10-14T10:55:49.508Z,22.11
2016-10-14T10:56:49.553Z,22.06
2016-10-14T10:57:49.591Z,21.99
2016-10-14T10:58:49.636Z,22.1
2016-10-14T10:59:49.738Z,22.06
2016-10-14T11:00:49.758Z,22.08
2016-10-14T11:01:49.805Z,22.08
2016-10-14T11:02:49.850Z,22.07
2016-10-14T11:03:50.445Z,22.06
2016-10-14T11:04:49.963Z,21.98
2016-10-14T11:05:50.144Z,22.06
2016-10-14T11:06:50.087Z,22.06
2016-10-14T11:07:50.121Z,22
2016-10-14T11:08:50.192Z,22.04
2016-10-14T11:09:50.220Z,22.06
2016-10-14T11:10:50.387Z,22.04
2016-10-14T11:11:50.314Z,22
2016-10-14T11:12:50.934Z,22.02
2016-10-14T11:13:50.468Z,22.13
2016-10-14T11:14:50.466Z,22.11
2016-10-14T11:15:51.157Z,22.1
2016-10-14T11:16:50.591Z,22.15
2016-10-14T11:17:50.683Z,22.11
2016-10-14T11:18:50.690Z,22.08
2016-10-14T11:19:50.768Z,22.18
2016-10-14T11:20:50.919Z,22.22
2016-10-14T11:21:50.882Z,22.3
2016-10-14T11:22:50.937Z,22.32
2016-10-14T11:23:50.969Z,22.29
2016-10-14T11:24:51.044Z,22.3
2016-10-14T11:25:51.205Z,22.23
2016-10-14T11:26:51.137Z,22.25
2016-10-14T11:27:51.714Z,22.25
2016-10-14T11:28:51.217Z,22.32
2016-10-14T11:29:51.326Z,22.33
2016-10-14T11:30:51.340Z,22.36
2016-10-14T11:31:51.387Z,22.54
2016-10-14T11:32:51.994Z,22.62
2016-10-14T11:33:51.527Z,22.76
2016-10-14T11:34:52.095Z,22.76
2016-10-14T11:35:51.612Z,22.88
2016-10-14T11:36:52.110Z,22.87
2016-10-14T11:37:51.757Z,22.99
2016-10-14T11:38:51.824Z,23.03
2016-10-14T11:39:51.815Z,23.05
2016-10-14T11:40:51.888Z,23.12
2016-10-14T11:41:51.973Z,23.21
2016-10-14T11:42:52.008Z,23.31
2016-10-14T11:43:52.083Z,23.41
2016-10-14T11:44:52.102Z,23.48
2016-10-14T11:45:52.176Z,23.5
2016-10-14T11:46:52.229Z,23.47
2016-10-14T11:47:52.274Z,23.48
2016-10-14T11:48:52.338Z,23.58
2016-10-14T11:49:52.408Z,23.66
2016-10-14T11:50:52.423Z,23.71
2016-10-14T11:51:52.585Z,23.74
2016-10-14T11:52:53.080Z,23.8
2016-10-14T11:53:52.626Z,23.87
2016-10-14T11:54:52.675Z,23.95
2016-10-14T11:55:52.733Z,23.99
2016-10-14T11:56:52.856Z,23.96
2016-10-14T11:57:52.821Z,23.98
2016-10-14T11:58:52.880Z,24.03
2016-10-14T11:59:52.936Z,24.1
2016-10-14T12:00:52.988Z,24.08
2016-10-14T12:01:53.130Z,24.2
2016-10-14T12:02:53.101Z,24.17
2016-10-14T12:03:53.664Z,24.16
2016-10-14T12:04:53.181Z,24.21
2016-10-14T12:05:53.265Z,24.26
2016-10-14T12:06:53.441Z,24.3
2016-10-14T12:07:53.347Z,24.32
2016-10-14T12:08:53.434Z,24.38
2016-10-14T12:09:53.461Z,24.43
2016-10-14T12:10:53.530Z,24.61
2016-10-14T12:11:53.614Z,24.65
2016-10-14T12:12:53.657Z,24.55
2016-10-14T12:13:53.718Z,24.68
2016-10-14T12:14:53.747Z,24.66
2016-10-14T12:15:53.795Z,24.73
2016-10-14T12:16:53.848Z,24.73
2016-10-14T12:17:53.942Z,24.7
2016-10-14T12:18:53.986Z,24.84
2016-10-14T12:19:54.075Z,24.93
2016-10-14T12:20:54.075Z,24.95
2016-10-14T12:21:54.161Z,25.08
2016-10-14T12:22:54.195Z,25.03
2016-10-14T12:23:54.225Z,24.88
2016-10-14T12:24:54.341Z,24.98
2016-10-14T12:25:54.545Z,24.89
2016-10-14T12:26:54.440Z,24.96
2016-10-14T12:27:54.598Z,24.99
2016-10-14T12:28:54.575Z,25.07
2016-10-14T12:29:54.582Z,25.13
2016-10-14T12:30:54.625Z,25.18
2016-10-14T12:31:54.710Z,25.16
2016-10-14T12:32:55.382Z,25.16
2016-10-14T12:33:54.848Z,25.26
2016-10-14T12:34:54.886Z,25.33
2016-10-14T12:35:54.905Z,25.41
2016-10-14T12:36:55.043Z,25.41
2016-10-14T12:37:55.120Z,25.41
2016-10-14T12:38:55.073Z,25.43
2016-10-14T12:39:55.180Z,25.43
2016-10-14T12:40:55.212Z,25.53
2016-10-14T12:41:55.847Z,25.5
2016-10-14T12:42:55.374Z,25.47
2016-10-14T12:43:55.360Z,25.48
2016-10-14T12:44:55.995Z,25.51
2016-10-14T12:45:55.506Z,25.48
2016-10-14T12:46:55.544Z,25.4
2016-10-14T12:47:55.639Z,25.47
2016-10-14T12:48:55.649Z,25.44
2016-10-14T12:49:55.733Z,25.41
2016-10-14T12:50:55.951Z,25.46
2016-10-14T12:51:55.861Z,25.32
2016-10-14T12:52:55.884Z,25.4
2016-10-14T12:53:56.026Z,25.4
2016-10-14T12:54:55.953Z,25.48
2016-10-14T12:55:56.019Z,25.58
2016-10-14T12:56:56.127Z,25.6